Terminal Aerodrome Forecast
Issued by NWS

Home | Current Version | Previous Version | Text Only | Print | Product List | Glossary On
Versions: 1 2 3 4 5 6 7 8 9 10 11 12 13 14 15 16 17
727
FTUS43 KJKL 281140
TAFSME
TAF
KSME 281140Z 2812/2912 VRB05KT P6SM VCSH BKN010
     FM281800 28006KT P6SM BKN020
     FM282300 31004KT P6SM BKN015=

USA.gov is the U.S. government's official web portal to all federal, state and local government web resources and services.